• Join FlightAware (Why Join?)
  • Login
  • US Flag 
12:52PM EDT


 

Airport Tracker/Info


-or-


 

Live Flight TrackerFlight Track Log ✈ CTL15 ✈ 24-Apr-2013 ✈ KMGY - KBKL

Flight Track Log - Related Links

Times and Time Zones

All times are in EDT time to prevent confusion due to time zone crossing. See the CTL15 flight status page for this flight to view local times or setup timezone preferences in your user account.

Time Position Orientation Groundspeed Altitude Reporting Facility
EDT Latitude Longitude Course Direction KTS MPH feet Rate Location/Type
07:46PM 39.6683 -84.1325 49° Northeast 171 197 2,700  Level Indianapolis Center
07:48PM 39.7181 -84.0689 45° Northeast 163 188 3,700 600 Climbing Indianapolis Center
07:48PM 39.7472 -84.0342 42° Northeast 170 196 4,100 600 Climbing Indianapolis Center
07:50PM 39.7825 -83.9872 46° Northeast 164 189 4,900 540 Climbing Indianapolis Center
07:51PM 39.8094 -83.9364 55° Northeast 189 217 5,300 420 Climbing Indianapolis Center
07:52PM 39.7852 -83.9057 49° Northeast  Level FlightAware Approximate
07:52PM 39.8281 -83.8817 66° East 178 205 5,800  Level Indianapolis Center
07:53PM 39.8614 -83.8203 55° Northeast 176 203 6,300 420 Climbing Indianapolis Center
07:54PM 39.8947 -83.7786 44° Northeast 171 197 6,700 420 Climbing Indianapolis Center
07:55PM 39.9269 -83.7364 45° Northeast 168 193 7,100 180 Climbing Indianapolis Center
07:55PM 39.9525 -83.7044 44° Northeast 177 204 7,100  Level Indianapolis Center
07:56PM 39.9650 -83.6881 45° Northeast 173 199 7,100 -120 Level Indianapolis Center
07:56PM 39.9917 -83.6547 44° Northeast 181 208 7,000 -120 Descending Indianapolis Center
07:57PM 40.0019 -83.6414 45° Northeast 179 206 7,000 60 Level Indianapolis Center
07:58PM 40.0314 -83.6025 45° Northeast 182 209 7,100  Climbing Indianapolis Center
07:58PM 40.0378 -83.5933 48° Northeast 181 208 7,000  Descending Indianapolis Center
07:59PM 40.0658 -83.5578 44° Northeast 180 207 7,100 60 Climbing Indianapolis Center
07:59PM 40.0731 -83.5461 51° Northeast 180 207 7,100  Level Indianapolis Center
08:00PM 40.1075 -83.5056 42° Northeast 183 211 7,100 -120 Level Indianapolis Center
08:00PM 40.1167 -83.4925 47° Northeast 181 208 7,000  Descending Indianapolis Center
08:01PM 40.1375 -83.4656 45° Northeast 183 211 7,100  Climbing Indianapolis Center
08:01PM 40.1533 -83.4464 43° Northeast 181 208 7,000  Descending Indianapolis Center
08:02PM 40.1742 -83.4211 43° Northeast 183 211 7,100 60 Climbing Indianapolis Center
08:02PM 40.1903 -83.3994 46° Northeast 182 209 7,100  Level Indianapolis Center
08:03PM 40.2133 -83.3711 43° Northeast 180 207 7,100 -120 Level Indianapolis Center
08:03PM 40.2261 -83.3531 47° Northeast 180 207 7,000  Descending Indianapolis Center
08:04PM 40.2481 -83.3261 43° Northeast 179 206 7,100 60 Climbing Indianapolis Center
08:04PM 40.2617 -83.3072 47° Northeast 178 205 7,100  Level Indianapolis Center
08:05PM 40.2978 -83.2608 44° Northeast 179 206 7,100  Level Indianapolis Center
08:06PM 40.3339 -83.2128 45° Northeast 183 211 7,100  Level Indianapolis Center
08:07PM 40.3700 -83.1694 42° Northeast 176 203 7,100  Level Indianapolis Center
08:08PM 40.4044 -83.1247 45° Northeast 173 199 7,100  Level Indianapolis Center
08:09PM 40.4381 -83.0789 46° Northeast 173 199 7,100  Level Indianapolis Center
08:10PM 40.4725 -83.0358 44° Northeast 170 196 7,100  Level Indianapolis Center
08:11PM 40.5144 -82.9822 44° Northeast 177 204 7,100  Level Indianapolis Center
08:12PM 40.5472 -82.9425 43° Northeast 174 200 7,100  Level Indianapolis Center
08:13PM 40.5811 -82.8944 47° Northeast 176 203 7,100  Level Indianapolis Center
08:14PM 40.6178 -82.8489 43° Northeast 179 206 7,200 -60 Climbing Indianapolis Center
08:15PM 40.6522 -82.8008 47° Northeast 179 206 7,000 -300 Descending Indianapolis Center
08:16PM 40.6892 -82.7547 43° Northeast 180 207 6,600 -540 Descending Indianapolis Center
08:17PM 40.7342 -82.6997 43° Northeast 187 215 6,000 -660 Descending Indianapolis Center
08:18PM 40.7706 -82.6469 48° Northeast 190 219 5,300 -720 Descending Indianapolis Center